X  Close Metar Aviation Weather Data        LGTS Thessaloniki Macedonia International
Temperature
64°F Temperature
54°F Dewpoint
68% Humidity



Wind
0 MPH
0 KM/H
0 M/S
0 KTS



Calm
N
Current Conditions

Mostly Sunny Mostly Sunny
Pressure 1020 (hPa) - 30.12 (inHg)
Visibility 6 (mile) - 10 (km)
Airport
Airport-code LGTS

Location: Thessaloniki Macedonia International
Distance: 85 (mi)

Metar:
METAR LGTS 150550Z 00000KT CAVOK 18/12 Q1020 NOSIG

Time: 15-04-2024 08:50 EEST